Pagrindinis puslapis
METAR-TAF:

METAR-TAF

Oro uostai :

Honkongo tarptautinis oro uostas

Honkongas, Kinija

platuma: 22-19N, ilguma: 113-55E, Aukštis: 9 m

Dabartinis oras

Ataskaita buvo paskelbta 38 minutes, ne 04:30 UTC
Vėjas 4 kt iš Šiaurės Vakarų, svyruoja nuo Vakarų ir Šiaurės
Temperatūra 32°C
Drėgmė 59%
Slėgis 1011 hPa
Matomumas 10 km arba daugiau
Mažai debesys ne aukštis 3000 ft

METAR: VHHH 180430Z 32004KT 280V010 9999 FEW030 32/23 Q1011 NOSIG

Laikas: 13:08 (05:08 UTC)

Prognozė

Ataskaita buvo paskelbta 6 valandos ir 8 minutes, ne 23:00 UTC
Prognozė galioja nuo 18 metu 00 UTC su 19 metu 06 UTC
Vėjas 10 kt iš Rytų
Matomumas: 9000 m
Mažai debesys ne aukštis 2500 ft
Laikinai
nuo 18 metu 00 UTC su 18 metu 03 UTC
Vėjas 5 kt nuo kintamojo kryptimis
Laikinai
nuo 18 metu 03 UTC su 18 metu 09 UTC
Vėjas 10 kt iš Vakarų
Laikinai
nuo 18 metu 09 UTC su 18 metu 18 UTC
Vėjas 10 kt iš Pietryčių

TAF: VHHH 172300Z 1800/1906 08010KT 9000 FEW025 TX33/1806Z TX33/1906Z TN28/1822Z TEMPO 1800/1803 VRB05KT TEMPO 1803/1809 27010KT TEMPO 1809/1818 13010KT

Orai ataskaitas ir orų prognozės (METAR, TAF).

turimą stotys yra geltonos ir raudonos taškus žemėlapyje.

Perkelti pele per norėdami pamatyti stoties vardą.

Tada spustelėkite, norėdami matyti oro stebėjimo ir prognozės.

Norėdami pakeisti žemėlapį: spustelėkite ant žalios mygtukų su juodo kryžiaus žemyn,; žalią mygtuką su brūkšneliu, jei norite nutolinti; arba žalių rodyklių gretimoms žemėlapius.


METAR-TAF: